Latest Coastal Weather Observations for Cape Borda

IDS60701

Issued at 5:05 am CST Sunday 20 April 2014 (issued every 10 minutes, with the page automatically refreshed every 10 minutes)

About coastal observations | Map of coastal stations | Coastal observations for SA | Marine services | Other Formats
Station Details ID: 022823 Name: CAPE BORDA Lat: -35.75 Lon: 136.60 Height: 158.0 m
Data from the previous 72 hours. | See also: Recent months at Cape Borda
Date/Time
CST
Temp

°C
Wind Pressure Rain
since 9am
mm
Weather Cloud Vis
km
Sea
Height
m
Swell
Dir
 
Speed
knots
Gust
knots
hPa Trend Height
m
Period
s
Dir
20/05:00am 15.2 NNW 11 15 1016.6 - 0.0 - - - - - - -
20/04:30am 15.1 NW 11 15 1016.5 - 0.0 - - - - - - -
20/04:00am 15.0 NW 9 12 1016.4 - 0.0 - - - - - - -
20/03:30am 14.6 NW 9 12 1016.6 - 0.0 - - - - - - -
20/03:00am 14.7 NW 8 11 1016.3 - 0.0 - - - - - - -
20/02:30am 15.2 NW 9 12 1016.8 - - - - - - - - -
20/02:00am 14.6 NNW 9 11 1016.9 - 0.0 - - - - - - -
20/01:30am 14.7 NNW 8 11 1017.2 - 0.0 - - - - - - -
20/01:00am 14.7 NNW 8 11 1017.2 - - - - - - - - -
20/12:30am 15.0 N 9 12 1017.4 - 0.0 - - - - - - -
20/12:00am 14.7 N 8 11 1017.3 - 0.0 - - - - - - -
 
Date/Time
CST
Temp

°C
Wind Pressure Rain
since 9am
mm
Weather Cloud Vis
km
Sea
Height
m
Swell
Dir
 
Speed
knots
Gust
knots
hPa Trend Height
m
Period
s
Dir
19/11:30pm 14.3 N 8 11 1017.5 - - - - - - - - -
19/11:00pm 14.8 N 8 11 1017.6 - - - - - - - - -
19/10:30pm 14.7 N 6 7 1018.0 - 0.0 - - - - - - -
19/10:00pm 14.5 N 4 6 1018.2 - 0.0 - - - - - - -
19/09:30pm 14.6 N 5 7 1018.2 - - - - - - - - -
19/09:00pm 14.4 N 4 5 1018.2 - 0.0 - - - - - - -
19/08:30pm 14.4 N 4 5 1018.3 - 0.0 - - - - - - -
19/08:00pm 14.5 N 5 7 1018.1 - 0.0 - - - - - - -
19/07:30pm 14.5 N 5 7 1018.3 - 0.0 - - - - - - -
19/07:00pm 14.4 N 4 6 1018.2 - 0.0 - - - - - - -
19/06:30pm 14.4 N 4 5 1018.0 - 0.0 - - - - - - -
19/06:00pm 14.6 N 5 6 1017.9 - 0.0 - - - - - - -
19/05:30pm 14.9 N 5 6 1018.2 - 0.0 - - - - - - -
19/05:00pm 15.2 NNW 6 8 1018.2 - 0.0 - - - - - - -
19/04:30pm 15.7 N 6 9 1018.3 - 0.0 - - - - - - -
19/04:00pm 15.8 NW 6 8 1018.7 - 0.0 - - - - - - -
19/03:30pm 16.3 NNW 6 9 1018.8 - 0.0 - - - - - - -
19/03:00pm 17.3 NNW 7 10 1018.8 F 0.0 Haze Mostly cloudy 10 1 - - SW
19/02:30pm 16.8 NNW 8 11 1019.2 - 0.0 - - - - - - -
19/02:00pm 16.4 N 7 9 1019.3 - 0.0 - - - - - - -
19/01:30pm 16.3 NNW 5 7 1019.5 - - - - - - - - -
19/01:00pm 15.9 N 6 8 1020.1 - 0.0 - - - - - - -
19/12:30pm 15.6 N 5 9 1020.9 - 0.0 - - - - - - -
19/12:00pm 15.8 NNE 7 9 1021.0 - 0.0 - - - - - - -
19/11:30am 15.8 NE 7 10 1021.6 - - - - - - - - -
19/11:00am 15.3 NE 8 11 1021.9 - 0.0 - - - - - - -
19/10:30am 15.4 NE 7 10 1022.2 - 0.0 - - - - - - -
19/10:00am 15.5 NE 8 13 1022.4 - 0.0 - - - - - - -
19/09:30am 15.0 ENE 7 11 1022.6 - 0.0 - - - - - - -
19/09:00am 14.6 ENE 7 10 1022.5 F 0.0 Fine Cloudy 20 1 - - SW
19/08:30am 13.6 E 5 7 1022.6 - 0.0 - - - - - - -
19/08:00am 12.7 ESE 5 6 1022.6 - 0.0 - - - - - - -
19/07:30am 12.6 E 6 6 1022.4 - - - - - - - - -
19/07:00am 12.3 E 7 7 1022.3 - 0.0 - - - - - - -
19/06:30am 12.5 E 5 6 1022.2 - 0.0 - - - - - - -
19/06:00am 12.6 - 6 7 1022.0 - 0.0 - - - - - - -
19/05:30am 12.0 ESE 6 7 1022.1 - - - - - - - - -
19/05:00am 12.3 E 6 7 1022.2 - 0.0 - - - - - - -
19/04:30am 12.2 E 7 8 1022.1 - 0.0 - - - - - - -
19/04:00am 11.7 ESE 7 7 1022.1 - 0.0 - - - - - - -
19/03:30am 11.9 ESE 6 7 1022.1 - 0.0 - - - - - - -
19/03:00am 11.8 ESE 6 7 1022.2 - 0.0 - - - - - - -
19/02:30am 12.0 ESE 6 7 1022.4 - 0.0 - - - - - - -
19/02:00am 12.2 ESE 6 7 1022.6 - 0.0 - - - - - - -
19/01:30am 12.3 ESE 6 7 1022.8 - 0.0 - - - - - - -
19/01:00am 12.2 ESE 5 6 1023.0 - 0.0 - - - - - - -
19/12:30am 12.3 SE 6 6 1023.1 - 0.0 - - - - - - -
19/12:00am 12.9 SSE 5 6 1023.2 - 0.0 - - - - - - -
 
Date/Time
CST
Temp

°C
Wind Pressure Rain
since 9am
mm
Weather Cloud Vis
km
Sea
Height
m
Swell
Dir
 
Speed
knots
Gust
knots
hPa Trend Height
m
Period
s
Dir
18/11:30pm 12.4 SSE 8 10 1023.4 - 0.0 - - - - - - -
18/11:00pm 11.5 SSE 6 6 1023.6 - 0.0 - - - - - - -
18/10:30pm 12.2 SSE 5 6 1023.8 - 0.0 - - - - - - -
18/10:00pm 12.3 SSE 6 7 1024.0 - 0.0 - - - - - - -
18/09:30pm 12.2 SSE 6 7 1024.0 - 0.0 - - - - - - -
18/09:00pm 12.1 SSE 6 7 1023.9 - 0.0 - - - - - - -
18/08:30pm 11.2 S 5 6 1024.0 - 0.0 - - - - - - -
18/08:00pm 10.5 S 7 8 1023.9 - 0.0 - - - - - - -
18/07:30pm 10.8 S 8 9 1023.7 - - - - - - - - -
18/07:00pm 11.3 S 8 9 1023.6 - 0.0 - - - - - - -
18/06:30pm 12.2 S 7 7 1023.5 - 0.0 - - - - - - -
18/06:00pm 14.3 S 9 12 1023.1 - 0.0 - - - - - - -
18/05:30pm 14.7 S 7 11 1023.2 - 0.0 - - - - - - -
18/05:00pm 14.9 S 8 11 1023.1 - 0.0 - - - - - - -
18/04:30pm 17.0 SW 10 12 1022.9 - 0.0 - - - - - - -
18/04:00pm 17.3 S 9 15 1022.9 - 0.0 - - - - - - -
18/03:30pm 16.8 SSW 12 19 1022.9 - 0.0 - - - - - - -
18/03:00pm 17.1 SW 14 20 1022.6 R 0.0 Fine Mostly clear 12 1 7.2 9 SW
18/02:30pm 17.0 SSW 12 18 1022.8 - 0.0 - - - - - - -
18/02:00pm 17.1 SSW 15 25 1022.6 - 0.0 - - - - - - -
18/01:58pm 17.2 SSW 15 25 1022.5 - 0.0 - - - - - - -
18/01:30pm 17.2 SW 15 20 1022.6 - 0.0 - - - - - - -
18/01:00pm 18.3 SW 13 20 1022.7 - 0.0 - - - - - - -
18/12:30pm 17.1 SSW 13 18 1022.9 - 0.0 - - - - - - -
18/12:00pm 17.4 SSW 11 16 1023.0 - 0.0 - - - - - - -
18/11:30am 17.4 S 14 18 1023.0 - 0.0 - - - - - - -
18/11:00am 17.3 SW 14 19 1023.1 - 0.0 - - - - - - -
18/10:30am 16.1 SW 13 17 1023.1 - 0.0 - - - - - - -
18/10:00am 16.4 SW 14 19 1022.9 - 0.0 - - - - - - -
18/09:30am 16.7 SW 12 15 1022.8 - 0.0 - - - - - - -
18/09:00am 15.5 SSW 13 18 1022.5 R 0.0 Fine Mostly clear 10 1 7.2 8 SW
18/08:30am 15.3 S 12 18 1022.3 - 0.0 - - - - - - -
18/08:00am 14.1 S 9 13 1021.9 - 0.0 - - - - - - -
18/07:30am 13.6 S 11 14 1021.4 - 0.0 - - - - - - -
18/07:00am 12.6 S 10 14 1020.9 - 0.0 - - - - - - -
18/06:30am 13.1 S 11 15 1020.4 - 0.0 - - - - - - -
18/06:00am 13.9 SSW 13 19 1019.9 - 0.0 - - - - - - -
18/05:30am 14.6 SSW 15 21 1019.7 - 0.0 - - - - - - -
18/05:00am 15.1 SSW 14 21 1019.5 - 0.0 - - - - - - -
18/04:30am 14.6 SSW 13 17 1019.1 - 0.0 - - - - - - -
18/04:00am 14.9 SSW 15 24 1018.6 - 0.0 - - - - - - -
18/03:46am 15.2 SSW 18 28 1018.5 - 0.0 - - - - - - -
18/03:31am 15.7 SW 20 25 1018.5 - 0.0 - - - - - - -
18/03:30am 15.9 W 17 25 1018.4 - 0.0 - - - - - - -
18/03:24am 16.6 W 15 25 1018.5 - 0.0 - - - - - - -
18/03:00am 16.9 W 16 22 1018.4 - 0.0 - - - - - - -
18/02:30am 16.8 W 17 24 1018.6 - 0.0 - - - - - - -
18/02:00am 16.5 W 16 23 1018.7 - 0.0 - - - - - - -
18/01:30am 16.5 W 15 21 1018.8 - 0.0 - - - - - - -
18/01:00am 16.3 W 15 21 1018.8 - 0.0 - - - - - - -
18/12:30am 16.5 W 16 22 1018.9 - 0.0 - - - - - - -
18/12:00am 16.4 W 14 19 1018.7 - 0.0 - - - - - - -
 
Date/Time
CST
Temp

°C
Wind Pressure Rain
since 9am
mm
Weather Cloud Vis
km
Sea
Height
m
Swell
Dir
 
Speed
knots
Gust
knots
hPa Trend Height
m
Period
s
Dir
17/11:30pm 16.5 W 14 19 1018.9 - 0.0 - - - - - - -
17/11:00pm 16.5 W 16 22 1019.2 - 0.0 - - - - - - -
17/10:30pm 16.5 W 16 22 1019.2 - 0.0 - - - - - - -
17/10:00pm 16.5 W 13 19 1019.2 - 0.0 - - - - - - -
17/09:30pm 16.5 W 13 17 1019.2 - 0.0 - - - - - - -
17/09:00pm 16.8 WNW 15 21 1019.2 - 0.0 - - - - - - -
17/08:30pm 17.0 NW 14 21 1019.1 - 0.0 - - - - - - -
17/08:00pm 16.9 NW 13 18 1018.9 - 0.0 - - - - - - -
17/07:30pm 16.9 NW 12 16 1018.8 - 0.0 - - - - - - -
17/07:00pm 17.0 NW 10 14 1018.8 - 0.0 - - - - - - -
17/06:30pm 17.0 NW 11 14 1018.8 - 0.0 - - - - - - -
17/06:00pm 17.1 NW 11 15 1018.5 - 0.0 - - - - - - -
17/05:30pm 17.2 NNW 9 12 1018.4 - 0.0 - - - - - - -
17/05:00pm 17.5 NNW 8 11 1018.4 - 0.0 - - - - - - -
17/04:30pm 18.3 N 8 11 1018.4 - 0.0 - - - - - - -
17/04:00pm 18.5 N 9 11 1018.8 - 0.0 - - - - - - -
17/03:30pm 18.8 N 9 11 1019.0 - 0.0 - - - - - - -
17/03:00pm 19.2 NNW 9 13 1019.0 F 0.0 Fine Mostly clear 10 <0.5 5.7 11 SW
17/02:30pm 19.4 N 10 13 1019.3 - 0.0 - - - - - - -
17/02:00pm 18.7 NNW 11 14 1019.4 - 0.0 - - - - - - -
17/01:30pm 18.8 N 10 14 1019.6 - 0.0 - - - - - - -
17/01:00pm 19.0 N 9 13 1019.7 - 0.0 - - - - - - -
17/12:30pm 18.4 N 9 11 1020.2 - 0.0 - - - - - - -
17/12:00pm 17.5 NE 8 12 1020.5 - 0.0 - - - - - - -
17/11:30am 17.2 NE 8 10 1020.9 - 0.0 - - - - - - -
17/11:00am 17.3 NE 9 11 1021.2 - 0.0 - - - - - - -
17/10:30am 16.7 NE 7 8 1021.2 - 0.0 - - - - - - -
17/10:00am 16.5 NNE 7 8 1021.4 - 0.0 - - - - - - -
17/09:30am 17.2 N 6 8 1021.3 - 0.0 - - - - - - -
17/09:00am 17.0 NNE 6 7 1021.0 R 0.0 Haze Mostly cloudy 10 <0.1 3.1 9 SW
17/08:30am 15.9 NNE 5 7 1021.0 - 0.0 - - - - - - -
17/08:00am 14.6 NNE 6 8 1020.8 - 0.0 - - - - - - -
17/07:30am 13.2 NE 7 8 1020.3 - 0.0 - - - - - - -
17/07:00am 12.1 NE 8 9 1019.8 - 0.0 - - - - - - -
17/06:30am 12.1 NE 6 7 1019.8 - 0.0 - - - - - - -
17/06:00am 11.9 NE 6 7 1019.6 S 0.0 Fine Mostly clear 10 <0.1 2.6 8 SW
17/05:30am 10.8 E 6 7 1019.5 - 0.0 - - - - - - -

Other Formats:

Comma delimited format used in spreadsheet applications
http://www.bom.gov.au/fwo/IDS60701/IDS60701.95805.axf

JavaScript Object Notation format (JSON) in row-major order
http://www.bom.gov.au/fwo/IDS60701/IDS60701.95805.json